Time;durP1;ratioP1;P1;durP2;ratioP2;P2;SDS_P1;SDS_P2;PMS_P1;PMS_P2;Temp;Humidity;BMP_temperature;BMP_pressure;BME280_temperature;BME280_humidity;BME280_pressure;Samples;Min_cycle;Max_cycle;Signal;HPM_P1;HPM_P2
2022/04/28 00:00:26;;;;;;;22.95;12.02;;;;;;;5.55;73.71;102780.63;5072268;28;20032;-58
2022/04/28 00:02:52;;;;;;;22.52;11.27;;;;;;;5.52;73.74;102790.16;5072106;28;20056;-58
2022/04/28 00:05:17;;;;;;;21.73;11.27;;;;;;;5.47;74.25;102779.00;5071980;28;20021;-58
2022/04/28 00:07:43;;;;;;;20.00;10.57;;;;;;;5.46;74.41;102783.66;5072524;28;20101;-58
2022/04/28 00:10:09;;;;;;;22.38;12.00;;;;;;;5.45;74.15;102792.09;5072175;28;20043;-58
2022/04/28 00:12:35;;;;;;;21.77;11.57;;;;;;;5.44;74.07;102794.00;5072189;28;20025;-59
2022/04/28 00:15:00;;;;;;;20.60;11.23;;;;;;;5.48;74.17;102786.16;5072079;28;20387;-58
2022/04/28 00:17:26;;;;;;;23.63;11.80;;;;;;;5.47;74.43;102799.06;5072289;28;20029;-59
2022/04/28 00:19:51;;;;;;;21.08;11.23;;;;;;;5.42;74.69;102798.88;5072037;28;20025;-58
2022/04/28 00:22:17;;;;;;;21.08;10.50;;;;;;;5.41;74.39;102797.19;5072313;28;20036;-59
2022/04/28 00:24:45;;;;;;;21.95;10.77;;;;;;;5.43;74.24;102789.59;5072136;28;20468;-58
2022/04/28 00:27:10;;;;;;;23.80;10.77;;;;;;;5.40;74.63;102797.44;5072070;28;20161;-59
2022/04/28 00:29:36;;;;;;;22.52;11.40;;;;;;;5.43;73.97;102800.56;5072260;28;20050;-58
2022/04/28 00:32:02;;;;;;;23.48;11.57;;;;;;;5.38;74.42;102794.91;5074545;28;20028;-59
2022/04/28 00:34:27;;;;;;;19.95;10.93;;;;;;;5.33;74.56;102791.97;5075387;28;20033;-58
2022/04/28 00:36:53;;;;;;;24.05;12.13;;;;;;;5.31;74.71;102803.19;5075859;28;20027;-58
2022/04/28 00:39:18;;;;;;;23.73;11.25;;;;;;;5.23;75.53;102797.13;5075498;28;20108;-59
2022/04/28 00:41:43;;;;;;;22.98;11.45;;;;;;;5.19;75.44;102798.66;5075423;28;20107;-59
2022/04/28 00:44:11;;;;;;;21.55;11.55;;;;;;;5.13;76.09;102797.63;5075454;28;20020;-59
2022/04/28 00:46:36;;;;;;;23.05;11.10;;;;;;;5.06;75.67;102789.44;5075344;28;20467;-58
2022/04/28 00:51:46;;;;;;;22.25;11.40;;;;;;;4.98;75.97;102789.69;5075369;28;20526;-59
2022/04/28 00:54:11;;;;;;;21.92;11.77;;;;;;;4.95;76.57;102795.63;5075150;28;20131;-58
2022/04/28 00:56:36;;;;;;;21.35;11.43;;;;;;;4.93;76.02;102784.88;5075244;28;20491;-59
2022/04/28 00:59:02;;;;;;;20.42;10.85;;;;;;;4.89;76.34;102788.28;5075242;28;20090;-58
2022/04/28 01:01:31;;;;;;;23.00;11.52;;;;;;;4.90;76.67;102796.28;5075004;28;20106;-58
2022/04/28 01:03:56;;;;;;;20.83;11.25;;;;;;;4.92;75.94;102798.78;5075417;28;20359;-59
2022/04/28 01:06:22;;;;;;;25.10;12.23;;;;;;;4.88;76.46;102797.56;5075014;28;20020;-58
2022/04/28 01:08:48;;;;;;;22.75;11.30;;;;;;;4.81;77.22;102792.97;5074884;28;20021;-59
2022/04/28 01:11:16;;;;;;;23.73;12.13;;;;;;;4.81;77.58;102792.09;5074979;28;20032;-59
2022/04/28 01:13:42;;;;;;;21.52;11.35;;;;;;;4.75;77.79;102793.00;5075130;28;20036;-59
2022/04/28 01:16:07;;;;;;;21.55;11.65;;;;;;;4.74;77.96;102796.78;5074666;28;20024;-58
2022/04/28 01:18:32;;;;;;;22.27;11.95;;;;;;;4.72;77.83;102790.69;5074858;28;20107;-59
2022/04/28 01:21:05;;;;;;;24.45;12.20;;;;;;;4.68;77.74;102793.03;5073478;28;20036;-59
2022/04/28 01:23:32;;;;;;;23.20;12.18;;;;;;;4.71;76.62;102792.59;5074790;28;20086;-59
2022/04/28 01:25:57;;;;;;;25.02;12.80;;;;;;;4.67;77.54;102796.81;5074737;28;20032;-58
2022/04/28 01:28:23;;;;;;;22.67;12.25;;;;;;;4.66;77.38;102796.00;5074456;28;20025;-59
2022/04/28 01:30:48;;;;;;;23.50;12.30;;;;;;;4.64;77.79;102802.72;5074525;28;20119;-58
2022/04/28 01:33:13;;;;;;;23.65;12.27;;;;;;;4.58;78.27;102798.94;5074484;28;20028;-59
2022/04/28 01:35:39;;;;;;;25.27;12.75;;;;;;;4.53;78.28;102794.13;5074370;28;20031;-60
2022/04/28 01:38:04;;;;;;;22.33;12.77;;;;;;;4.49;77.87;102798.38;5074454;28;20036;-59
2022/04/28 01:40:29;;;;;;;22.77;12.30;;;;;;;4.50;78.43;102804.69;5074446;28;20103;-59
2022/04/28 01:42:55;;;;;;;20.92;12.20;;;;;;;4.45;78.28;102788.06;5073892;28;20031;-59
2022/04/28 01:45:20;;;;;;;23.45;12.25;;;;;;;4.46;78.17;102796.06;5074141;28;20036;-59
2022/04/28 01:47:45;;;;;;;24.20;12.88;;;;;;;4.43;79.13;102796.50;5074276;28;20032;-59
2022/04/28 01:50:11;;;;;;;23.08;12.63;;;;;;;4.39;78.96;102795.25;5074271;28;20100;-59
2022/04/28 01:55:22;;;;;;;24.45;12.93;;;;;;;4.41;78.45;102798.63;5074370;28;20052;-59
2022/04/28 01:57:48;;;;;;;23.77;12.50;;;;;;;4.37;79.13;102795.47;5073907;28;20379;-59
2022/04/28 02:00:14;;;;;;;21.00;12.10;;;;;;;4.35;78.47;102802.22;5073916;28;20459;-58
2022/04/28 02:02:39;;;;;;;23.23;12.70;;;;;;;4.27;79.51;102795.09;5074003;28;20081;-59
2022/04/28 02:05:07;;;;;;;23.63;12.68;;;;;;;4.22;79.90;102795.72;5073794;28;20475;-59
2022/04/28 02:07:32;;;;;;;24.38;12.73;;;;;;;4.17;80.10;102797.44;5073932;28;20025;-59
2022/04/28 02:09:58;;;;;;;24.33;12.75;;;;;;;4.11;80.10;102796.38;5074009;28;20025;-58
2022/04/28 02:12:25;;;;;;;21.45;12.60;;;;;;;4.07;80.33;102795.13;5073728;28;20106;-58
2022/04/28 02:14:51;;;;;;;23.80;13.50;;;;;;;4.04;80.93;102799.13;5073618;28;20082;-58
2022/04/28 02:17:20;;;;;;;23.75;13.10;;;;;;;4.03;80.84;102802.09;5073500;28;20052;-58
2022/04/28 02:19:45;;;;;;;24.05;13.52;;;;;;;4.04;80.80;102807.34;5073746;28;20043;-58
2022/04/28 02:22:10;;;;;;;22.25;12.80;;;;;;;4.00;80.89;102802.50;5073518;28;20017;-58
2022/04/28 02:24:36;;;;;;;22.75;12.35;;;;;;;3.99;80.69;102803.56;5073503;28;20502;-58
2022/04/28 02:27:01;;;;;;;24.65;12.80;;;;;;;3.96;81.61;102804.00;5073502;28;20032;-58
2022/04/28 02:29:26;;;;;;;24.33;13.60;;;;;;;3.93;81.09;102804.44;5073340;28;20111;-58
2022/04/28 02:31:52;;;;;;;24.40;13.32;;;;;;;3.89;81.67;102799.38;5073613;28;20032;-58
2022/04/28 02:34:17;;;;;;;25.13;13.73;;;;;;;3.87;81.62;102796.00;5073675;28;20460;-59
2022/04/28 02:36:42;;;;;;;24.17;13.52;;;;;;;3.86;81.78;102802.56;5073176;28;20025;-58
2022/04/28 02:39:09;;;;;;;25.52;14.50;;;;;;;3.85;81.33;102800.88;5073182;28;20390;-58
2022/04/28 02:41:35;;;;;;;23.95;13.95;;;;;;;3.87;81.37;102798.72;5073279;28;20052;-57
2022/04/28 02:44:00;;;;;;;25.45;13.63;;;;;;;3.88;81.55;102799.59;5073306;28;20431;-58
2022/04/28 02:46:27;;;;;;;25.17;13.80;;;;;;;3.84;81.39;102809.28;5073139;28;20028;-58
2022/04/28 02:48:52;;;;;;;25.33;12.88;;;;;;;3.82;81.83;102795.81;5073248;28;20059;-58
2022/04/28 02:51:17;;;;;;;22.42;13.63;;;;;;;3.81;82.00;102796.03;5073341;28;20056;-58
2022/04/28 02:53:43;;;;;;;22.88;13.13;;;;;;;3.81;82.21;102801.50;5072021;28;20049;-58
2022/04/28 02:56:08;;;;;;;24.85;13.52;;;;;;;3.79;82.25;102795.41;5072776;28;20104;-58
2022/04/28 02:58:34;;;;;;;21.65;13.10;;;;;;;3.74;82.13;102793.28;5072890;28;20044;-58
2022/04/28 03:01:00;;;;;;;23.33;13.95;;;;;;;3.67;82.55;102795.19;5071637;28;20033;-58
2022/04/28 03:03:26;;;;;;;26.88;13.63;;;;;;;3.63;83.12;102792.06;5072842;28;20037;-58
2022/04/28 03:11:27;;;;;;;;;;;;;;;3.63;80.52;102800.25;5073512;28;20035;-59
2022/04/28 03:13:53;;;;;;;23.60;13.50;;;;;;;3.61;81.83;102802.34;5072883;28;19987;-58
2022/04/28 03:16:18;;;;;;;27.88;13.77;;;;;;;3.63;82.74;102791.19;5072727;28;20048;-58
2022/04/28 03:18:45;;;;;;;24.15;13.20;;;;;;;3.59;82.60;102801.72;5072765;28;20024;-58
2022/04/28 03:21:13;;;;;;;23.77;13.68;;;;;;;3.54;82.87;102796.06;5072596;28;20481;-58
2022/04/28 03:23:39;;;;;;;23.17;12.85;;;;;;;3.53;82.91;102797.94;5072704;28;20169;-58
2022/04/28 03:26:04;;;;;;;24.55;14.18;;;;;;;3.52;83.16;102792.69;5072734;28;20046;-58
2022/04/28 03:28:34;;;;;;;26.23;14.57;;;;;;;3.48;82.88;102803.19;5072536;28;20432;-59
2022/04/28 03:30:59;;;;;;;26.05;15.02;;;;;;;3.46;83.70;102804.44;5072571;28;20024;-58
2022/04/28 03:33:25;;;;;;;26.10;14.15;;;;;;;3.44;83.28;102804.66;5072690;28;20043;-59
2022/04/28 03:35:50;;;;;;;25.67;14.30;;;;;;;3.44;83.83;102804.66;5072741;28;20025;-59
2022/04/28 03:38:15;;;;;;;28.33;15.73;;;;;;;3.42;83.62;102802.16;5072692;28;20029;-59
2022/04/28 03:40:42;;;;;;;25.83;14.85;;;;;;;3.42;83.85;102801.28;5072657;28;20158;-58
2022/04/28 03:43:07;;;;;;;24.40;14.35;;;;;;;3.40;84.11;102803.41;5072529;28;20025;-58
2022/04/28 03:45:33;;;;;;;25.88;14.07;;;;;;;3.40;83.74;102812.44;5072212;28;20035;-58
2022/04/28 03:48:00;;;;;;;26.38;14.65;;;;;;;3.35;84.42;102806.78;5072453;28;20025;-58
2022/04/28 03:50:28;;;;;;;25.42;14.63;;;;;;;3.35;84.04;102798.56;5072347;28;20141;-58
2022/04/28 03:52:54;;;;;;;26.15;14.35;;;;;;;3.31;83.88;102804.66;5072189;28;20028;-58
2022/04/28 03:55:19;;;;;;;25.98;14.02;;;;;;;3.27;84.67;102805.06;5072305;28;20039;-58
2022/04/28 03:57:44;;;;;;;25.05;13.80;;;;;;;3.26;84.33;102808.84;5072515;28;20226;-58
2022/04/28 04:00:10;;;;;;;27.25;14.70;;;;;;;3.25;84.77;102809.91;5072186;28;20502;-58
2022/04/28 04:02:35;;;;;;;27.42;15.75;;;;;;;3.25;84.77;102815.38;5072187;28;20024;-58
2022/04/28 04:05:00;;;;;;;26.42;14.57;;;;;;;3.24;84.89;102810.13;5073200;28;20102;-58
2022/04/28 04:07:29;;;;;;;26.05;14.38;;;;;;;3.24;84.55;102816.44;5075968;28;20039;-58
2022/04/28 04:09:55;;;;;;;27.58;14.40;;;;;;;3.21;85.64;102814.09;5075597;28;20041;-58
2022/04/28 04:12:20;;;;;;;27.40;15.32;;;;;;;3.19;85.71;102816.22;5075804;28;20039;-58
2022/04/28 04:14:45;;;;;;;25.88;15.00;;;;;;;3.16;85.78;102818.53;5075550;28;20456;-58
2022/04/28 04:17:10;;;;;;;27.15;14.98;;;;;;;3.14;85.26;102815.16;5075480;28;20031;-58
2022/04/28 04:19:36;;;;;;;28.27;15.52;;;;;;;3.14;85.31;102818.72;5075577;28;20029;-59
2022/04/28 04:22:01;;;;;;;26.48;15.23;;;;;;;3.13;86.31;102819.75;5075749;28;20387;-59
2022/04/28 04:24:27;;;;;;;25.88;15.40;;;;;;;3.12;85.99;102816.19;5075787;28;20025;-59
2022/04/28 04:26:53;;;;;;;27.48;14.65;;;;;;;3.15;86.25;102823.16;5075747;28;20027;-59
2022/04/28 04:29:18;;;;;;;26.35;14.80;;;;;;;3.15;85.70;102820.41;5075462;28;20391;-59
2022/04/28 04:34:27;;;;;;;27.63;14.32;;;;;;;3.21;85.41;102818.75;5075799;28;20124;-59
2022/04/28 04:36:52;;;;;;;27.75;14.25;;;;;;;3.23;85.75;102830.31;5075722;28;20104;-59
2022/04/28 04:39:17;;;;;;;28.85;14.23;;;;;;;3.25;85.51;102830.97;5075505;28;20532;-59
2022/04/28 04:41:43;;;;;;;25.17;14.38;;;;;;;3.26;85.35;102825.28;5075458;28;20021;-59
2022/04/28 04:44:13;;;;;;;24.50;14.52;;;;;;;3.30;84.74;102827.59;5075372;28;20024;-59
2022/04/28 04:46:40;;;;;;;26.98;14.88;;;;;;;3.34;84.80;102823.38;5075077;28;20037;-58
2022/04/28 04:49:05;;;;;;;25.55;13.93;;;;;;;3.37;84.85;102836.66;5075430;28;20501;-59
2022/04/28 04:51:30;;;;;;;30.00;15.63;;;;;;;3.42;84.96;102834.13;5075281;28;20029;-59
2022/04/28 04:53:56;;;;;;;26.08;13.95;;;;;;;3.49;84.66;102837.72;5075220;28;20340;-59
2022/04/28 04:56:21;;;;;;;26.80;14.43;;;;;;;3.53;84.56;102847.19;5075127;28;20032;-59
2022/04/28 04:58:46;;;;;;;27.23;15.10;;;;;;;3.57;84.40;102847.59;5074936;28;20025;-58
2022/04/28 05:01:11;;;;;;;27.23;13.95;;;;;;;3.64;84.01;102853.09;5075001;28;20375;-59
2022/04/28 05:03:37;;;;;;;28.25;15.05;;;;;;;3.71;84.09;102853.94;5074901;28;20017;-59
2022/04/28 05:06:02;;;;;;;27.95;14.45;;;;;;;3.77;83.60;102855.00;5074749;28;20111;-59
2022/04/28 05:08:27;;;;;;;28.42;14.57;;;;;;;3.82;84.01;102844.25;5074868;28;20333;-59
2022/04/28 05:10:52;;;;;;;25.58;14.63;;;;;;;3.86;84.34;102851.84;5074642;28;20027;-59
2022/04/28 05:13:18;;;;;;;27.90;15.07;;;;;;;3.90;83.51;102855.81;5074762;28;20024;-59
2022/04/28 05:15:47;;;;;;;24.13;14.10;;;;;;;3.96;83.91;102854.13;5074529;28;20024;-59
2022/04/28 05:18:12;;;;;;;27.67;14.48;;;;;;;4.01;84.18;102851.63;5074005;28;20029;-59
2022/04/28 05:20:37;;;;;;;28.70;14.77;;;;;;;4.05;83.81;102852.88;5074698;28;20467;-59
2022/04/28 05:23:02;;;;;;;28.23;15.13;;;;;;;4.09;83.78;102846.97;5074703;28;20025;-59
2022/04/28 05:25:29;;;;;;;26.45;14.38;;;;;;;4.15;83.49;102857.06;5074178;28;20043;-58
2022/04/28 05:27:54;;;;;;;27.35;14.85;;;;;;;4.21;83.23;102868.03;5074594;28;20503;-59
2022/04/28 05:30:20;;;;;;;25.67;14.10;;;;;;;4.26;83.53;102866.53;5074104;28;20036;-58
2022/04/28 05:32:45;;;;;;;28.02;14.75;;;;;;;4.32;83.25;102869.25;5074230;28;20533;-58
2022/04/28 05:35:10;;;;;;;30.65;16.05;;;;;;;4.39;83.28;102877.47;5074192;28;20480;-58
2022/04/28 05:37:37;;;;;;;28.90;15.93;;;;;;;4.45;83.42;102886.72;5074115;28;20025;-59
2022/04/28 05:40:03;;;;;;;29.33;15.75;;;;;;;4.50;83.20;102884.16;5074065;28;20089;-58
2022/04/28 05:45:41;;;;;;;28.90;15.73;;;;;;;4.55;83.67;102884.38;5074090;28;20032;-59
2022/04/28 05:47:57;;;;;;;27.73;15.77;;;;;;;4.72;83.37;102894.88;5074807;28;20090;-59
2022/04/28 05:50:23;;;;;;;28.95;15.88;;;;;;;4.80;82.74;102884.53;5073863;28;20452;-60
2022/04/28 05:52:48;;;;;;;29.55;15.60;;;;;;;4.91;82.50;102893.97;5073734;28;20100;-58
2022/04/28 05:55:13;;;;;;;27.88;15.80;;;;;;;5.03;82.05;102896.03;5073770;28;20493;-58
2022/04/28 05:57:39;;;;;;;29.55;15.57;;;;;;;5.10;82.17;102891.34;5073972;28;20394;-59
2022/04/28 06:00:06;;;;;;;27.45;14.93;;;;;;;5.24;81.51;102898.44;5073723;28;20060;-59
2022/04/28 06:02:31;;;;;;;28.33;15.18;;;;;;;5.34;80.88;102900.72;5073903;28;20111;-59
2022/04/28 06:04:56;;;;;;;28.95;15.90;;;;;;;5.38;80.67;102896.47;5073792;28;20095;-59
2022/04/28 06:07:21;;;;;;;29.67;16.30;;;;;;;5.49;79.80;102905.03;5073559;28;20444;-59
2022/04/28 06:09:47;;;;;;;28.00;15.27;;;;;;;5.55;79.95;102912.41;5073486;28;20024;-59
2022/04/28 06:12:12;;;;;;;30.10;15.88;;;;;;;5.65;79.70;102909.16;5073633;28;20028;-59
2022/04/28 06:14:38;;;;;;;28.55;15.48;;;;;;;5.74;79.16;102913.31;5073552;28;20028;-59
2022/04/28 06:17:03;;;;;;;28.15;15.30;;;;;;;5.82;78.94;102929.53;5073238;28;20081;-59
2022/04/28 06:19:28;;;;;;;31.83;15.00;;;;;;;5.91;78.14;102927.38;5073321;28;20337;-59
2022/04/28 06:21:54;;;;;;;29.25;15.43;;;;;;;6.01;78.54;102930.50;5073292;28;20050;-60
2022/04/28 06:24:19;;;;;;;28.38;15.73;;;;;;;6.09;77.49;102926.63;5073188;28;20392;-59
2022/04/28 06:26:44;;;;;;;30.08;16.23;;;;;;;6.18;77.86;102938.16;5073192;28;20028;-59
2022/04/28 06:29:10;;;;;;;27.42;15.68;;;;;;;6.27;77.13;102933.22;5073180;28;20024;-57
2022/04/28 06:31:35;;;;;;;28.55;14.60;;;;;;;6.34;76.44;102931.25;5073252;28;20068;-57
2022/04/28 06:34:00;;;;;;;27.52;14.73;;;;;;;6.42;75.99;102932.88;5073156;28;20032;-58
2022/04/28 06:36:25;;;;;;;27.27;15.15;;;;;;;6.53;76.63;102932.09;5073004;28;20383;-58
2022/04/28 06:38:51;;;;;;;28.33;16.30;;;;;;;6.63;75.88;102937.94;5072840;28;20052;-57
2022/04/28 06:41:16;;;;;;;31.38;16.42;;;;;;;6.71;75.54;102926.63;5073458;28;20043;-58
2022/04/28 06:43:41;;;;;;;27.42;15.35;;;;;;;6.77;74.56;102937.78;5072837;28;20379;-58
2022/04/28 06:46:12;;;;;;;29.50;15.45;;;;;;;6.85;74.58;102931.97;5072789;28;20419;-58
2022/04/28 06:48:38;;;;;;;26.80;15.15;;;;;;;6.92;73.98;102938.25;5072893;28;20075;-58
2022/04/28 06:51:03;;;;;;;31.35;15.88;;;;;;;7.03;74.24;102942.97;5072700;28;20548;-57
2022/04/28 06:53:28;;;;;;;28.85;15.38;;;;;;;7.11;73.59;102936.34;5071202;28;20053;-59
2022/04/28 06:55:53;;;;;;;28.42;14.88;;;;;;;7.15;73.22;102937.53;5072517;28;20166;-58
2022/04/28 06:58:21;;;;;;;33.10;17.73;;;;;;;7.21;73.37;102932.19;5072818;28;20051;-58
2022/04/28 07:00:49;;;;;;;27.73;15.55;;;;;;;7.28;73.31;102935.69;5072280;28;20049;-58
2022/04/28 07:03:14;;;;;;;26.25;15.20;;;;;;;7.39;72.77;102940.41;5072552;28;20039;-58
2022/04/28 07:05:39;;;;;;;28.23;14.80;;;;;;;7.43;72.35;102958.13;5072401;28;20388;-58
2022/04/28 07:08:05;;;;;;;29.10;15.48;;;;;;;7.49;71.96;102954.47;5072496;28;20463;-58
2022/04/28 07:10:30;;;;;;;30.00;15.40;;;;;;;7.55;71.99;102958.22;5072565;28;20028;-58
2022/04/28 07:12:56;;;;;;;29.30;15.40;;;;;;;7.61;71.06;102954.50;5072650;28;20024;-58
2022/04/28 07:15:21;;;;;;;25.85;14.05;;;;;;;7.67;70.14;102958.25;5072564;28;20463;-58
2022/04/28 07:17:47;;;;;;;27.95;14.57;;;;;;;7.79;70.91;102959.09;5072636;28;20063;-58
2022/04/28 07:20:12;;;;;;;26.80;14.02;;;;;;;7.93;70.42;102961.66;5073171;28;20024;-58
2022/04/28 07:22:39;;;;;;;26.85;14.73;;;;;;;8.00;69.34;102962.38;5072519;28;20449;-58
2022/04/28 07:25:05;;;;;;;24.88;14.20;;;;;;;8.14;68.59;102973.22;5072553;28;20047;-58
2022/04/28 07:27:30;;;;;;;24.45;13.65;;;;;;;8.19;68.03;102970.56;5072380;28;20531;-58
2022/04/28 07:29:55;;;;;;;23.98;12.82;;;;;;;8.26;67.58;102974.91;5072464;28;20464;-58
2022/04/28 07:32:21;;;;;;;26.70;14.40;;;;;;;8.32;66.98;102975.00;5072341;28;20032;-57
2022/04/28 07:34:46;;;;;;;25.52;13.75;;;;;;;8.27;67.40;102975.72;5072447;28;20029;-57
2022/04/28 07:37:11;;;;;;;26.48;14.32;;;;;;;8.35;67.23;102978.16;5072609;28;20024;-57
2022/04/28 07:39:36;;;;;;;24.33;13.25;;;;;;;8.45;66.97;102977.53;5072770;28;20025;-58
2022/04/28 07:42:02;;;;;;;27.52;14.07;;;;;;;8.49;66.37;102986.22;5076401;28;20028;-58
2022/04/28 07:44:27;;;;;;;25.02;12.90;;;;;;;8.59;66.70;102978.19;5074991;28;20032;-58
2022/04/28 07:46:53;;;;;;;26.85;13.20;;;;;;;8.68;66.33;102984.19;5076351;28;20028;-58
2022/04/28 07:49:18;;;;;;;25.83;14.05;;;;;;;8.79;65.76;102980.56;5076411;28;20108;-58
2022/04/28 07:51:43;;;;;;;26.85;13.63;;;;;;;8.83;65.28;102976.25;5075054;28;20086;-58
2022/04/28 07:54:09;;;;;;;25.92;14.60;;;;;;;8.87;64.92;102982.97;5076254;28;20051;-58
2022/04/28 07:56:34;;;;;;;24.75;14.10;;;;;;;8.90;65.00;102978.88;5074903;28;20045;-58
2022/04/28 07:58:59;;;;;;;25.10;14.15;;;;;;;8.92;64.01;102986.91;5076239;28;20061;-58
2022/04/28 08:01:25;;;;;;;25.25;13.77;;;;;;;8.94;65.15;102985.56;5075252;28;20055;-58
2022/04/28 08:03:50;;;;;;;26.88;13.55;;;;;;;9.06;64.28;102988.34;5076017;28;20059;-57
2022/04/28 08:06:15;;;;;;;25.50;13.38;;;;;;;9.14;64.52;102984.34;5076050;28;20107;-58
2022/04/28 08:08:41;;;;;;;25.35;13.95;;;;;;;9.19;63.31;102996.34;5075639;28;20107;-58
2022/04/28 08:11:07;;;;;;;28.42;15.27;;;;;;;9.26;64.19;102993.44;5074821;28;20029;-58
2022/04/28 08:13:32;;;;;;;24.52;13.48;;;;;;;9.35;63.44;103003.03;5075748;28;20025;-58
2022/04/28 08:15:58;;;;;;;24.92;13.80;;;;;;;9.36;62.83;103009.38;5075835;28;20024;-59
2022/04/28 08:18:26;;;;;;;26.40;13.07;;;;;;;9.38;62.73;103015.50;5075852;28;20036;-59
2022/04/28 08:20:51;;;;;;;28.13;13.90;;;;;;;9.47;62.52;103013.22;5075643;28;20056;-58
2022/04/28 08:23:16;;;;;;;26.10;13.50;;;;;;;9.52;61.84;103016.06;5075623;28;20028;-58
2022/04/28 08:25:42;;;;;;;25.40;13.63;;;;;;;9.54;61.68;103015.84;5075500;28;20068;-58
2022/04/28 08:28:07;;;;;;;26.13;13.23;;;;;;;9.62;62.22;103015.44;5075803;28;20024;-59
2022/04/28 08:30:32;;;;;;;25.52;13.55;;;;;;;9.67;61.53;103024.66;5074199;28;20032;-58
2022/04/28 08:32:59;;;;;;;24.60;13.30;;;;;;;9.71;61.40;103013.97;5075462;28;20039;-58
2022/04/28 08:35:24;;;;;;;23.65;12.68;;;;;;;9.88;61.60;103013.16;5075476;28;20025;-58
2022/04/28 08:37:50;;;;;;;24.08;13.10;;;;;;;10.00;60.49;103016.69;5075105;28;20498;-58
2022/04/28 08:40:16;;;;;;;24.70;13.30;;;;;;;10.06;59.87;103021.22;5075909;28;20060;-58
2022/04/28 08:42:42;;;;;;;24.92;13.27;;;;;;;10.21;60.45;103019.81;5075280;28;20039;-58
2022/04/28 08:45:08;;;;;;;24.33;14.35;;;;;;;10.24;60.35;103020.16;5075360;28;20032;-58
2022/04/28 08:47:33;;;;;;;25.40;13.93;;;;;;;10.30;60.11;103023.84;5075464;28;20371;-58
2022/04/28 08:49:58;;;;;;;23.00;13.43;;;;;;;10.23;58.82;103021.25;5075206;28;20033;-58
2022/04/28 08:52:25;;;;;;;24.67;13.23;;;;;;;10.21;58.88;103026.19;5073905;28;20032;-59
2022/04/28 08:54:53;;;;;;;22.83;12.05;;;;;;;10.24;58.87;103008.25;5075643;28;20048;-58
2022/04/28 08:57:18;;;;;;;22.88;12.65;;;;;;;10.42;59.22;103019.09;5074819;28;20475;-59
2022/04/28 08:59:44;;;;;;;23.30;13.02;;;;;;;10.49;57.44;103018.06;5075255;28;20035;-58
2022/04/28 09:02:11;;;;;;;22.73;11.90;;;;;;;10.54;57.32;103020.94;5074981;28;20036;-58
2022/04/28 09:04:36;;;;;;;22.80;12.25;;;;;;;10.64;56.82;103014.72;5075087;28;20033;-58
2022/04/28 09:07:05;;;;;;;24.27;12.07;;;;;;;10.73;56.31;103014.03;5074849;28;20103;-58
2022/04/28 09:09:32;;;;;;;23.50;11.75;;;;;;;10.84;56.01;103005.91;5074654;28;20472;-58
2022/04/28 09:12:03;;;;;;;23.55;11.80;;;;;;;11.00;56.78;103012.50;5074828;28;20052;-59
2022/04/28 09:14:30;;;;;;;24.77;12.27;;;;;;;11.08;55.58;103023.13;5074651;28;20487;-59
2022/04/28 09:16:59;;;;;;;23.45;11.70;;;;;;;11.05;55.13;103002.28;5074540;28;20114;-58
2022/04/28 09:19:29;;;;;;;24.80;12.55;;;;;;;11.00;55.13;103018.03;5074683;28;20097;-58
2022/04/28 09:21:57;;;;;;;24.23;11.90;;;;;;;11.00;55.25;103010.53;5074821;28;20032;-58
2022/04/28 09:24:24;;;;;;;22.90;11.80;;;;;;;11.16;54.75;102996.88;5074295;28;20020;-59
2022/04/28 09:26:53;;;;;;;21.20;10.88;;;;;;;11.27;54.74;103000.66;5074344;28;20028;-58
2022/04/28 09:29:19;;;;;;;21.92;11.43;;;;;;;11.23;54.23;103003.91;5074129;28;20028;-58
2022/04/28 09:31:45;;;;;;;22.92;11.45;;;;;;;11.30;53.47;103000.97;5074155;28;20078;-58
2022/04/28 09:34:15;;;;;;;21.63;11.23;;;;;;;11.43;54.31;103001.66;5074359;28;20039;-58
2022/04/28 09:36:42;;;;;;;22.05;11.20;;;;;;;11.60;54.44;103002.41;5056856;28;20036;-58
2022/04/28 09:39:12;;;;;;;21.98;11.40;;;;;;;11.61;53.61;102987.47;5074362;28;20036;-58
2022/04/28 09:44:22;;;;;;;21.77;10.90;;;;;;;11.78;51.80;103008.69;5074518;28;20052;-59
2022/04/28 09:46:49;;;;;;;22.13;12.07;;;;;;;11.71;51.32;103000.59;5073999;28;20032;-58
2022/04/28 09:49:22;;;;;;;21.88;11.38;;;;;;;11.75;52.12;102993.44;5074188;28;20118;-61
2022/04/28 09:51:48;;;;;;;24.63;11.23;;;;;;;11.77;51.45;102993.97;5074310;28;20479;-58
2022/04/28 09:54:17;;;;;;;24.17;10.98;;;;;;;11.92;51.99;102990.53;5074286;28;20100;-59
2022/04/28 09:56:43;;;;;;;21.80;10.88;;;;;;;12.00;51.12;102986.47;5074140;28;20016;-59
2022/04/28 09:59:11;;;;;;;22.88;11.65;;;;;;;12.21;51.09;102997.75;5074010;28;20021;-58
2022/04/28 10:01:37;;;;;;;21.70;11.38;;;;;;;12.04;50.59;102986.78;5073906;28;20032;-58
2022/04/28 10:04:07;;;;;;;22.98;11.60;;;;;;;11.97;50.81;102986.97;5073677;28;20162;-58
2022/04/28 10:06:36;;;;;;;22.45;11.63;;;;;;;12.08;51.14;102982.41;5073584;28;20041;-58
2022/04/28 10:09:12;;;;;;;22.23;11.45;;;;;;;12.15;50.59;102983.00;5073535;28;20035;-58
2022/04/28 10:11:38;;;;;;;22.92;11.10;;;;;;;12.20;50.42;102980.25;5073361;28;20086;-58
2022/04/28 10:14:04;;;;;;;22.33;11.25;;;;;;;12.35;50.37;102979.53;5073344;28;20032;-58
2022/04/28 10:16:29;;;;;;;22.17;11.68;;;;;;;12.57;50.15;102964.72;5073609;28;20029;-58
2022/04/28 10:19:03;;;;;;;22.85;11.07;;;;;;;12.70;50.11;102971.72;5073671;28;20032;-58
2022/04/28 10:21:37;;;;;;;22.30;12.05;;;;;;;12.61;49.61;102972.25;5073435;28;20033;-58
2022/04/28 10:32:57;;;;;;;22.05;12.05;;;;;;;13.11;49.33;102958.06;5073305;28;20427;-58
2022/04/28 10:35:46;;;;;;;25.48;12.95;;;;;;;13.01;48.98;102963.56;5073265;28;20025;-58
2022/04/28 10:38:26;;;;;;;21.45;11.88;;;;;;;13.00;48.80;102953.56;5073072;28;20494;-58
2022/04/28 10:41:00;;;;;;;21.83;12.40;;;;;;;13.01;48.96;102961.63;5073164;28;20024;-59
2022/04/28 10:43:30;;;;;;;24.92;12.77;;;;;;;13.05;48.51;102971.09;5072876;28;20422;-59
2022/04/28 10:45:57;;;;;;;22.23;12.55;;;;;;;13.08;49.03;102958.59;5072891;28;20043;-59
2022/04/28 10:48:32;;;;;;;22.85;12.32;;;;;;;13.04;48.88;102960.22;5073153;28;20031;-58
2022/04/28 10:51:05;;;;;;;22.88;13.10;;;;;;;12.99;48.88;102949.09;5072935;28;20043;-59
2022/04/28 10:53:31;;;;;;;23.20;12.50;;;;;;;13.21;48.89;102949.75;5072780;28;20083;-58
2022/04/28 10:56:05;;;;;;;22.65;12.68;;;;;;;13.29;48.72;102958.66;5072714;28;20036;-58
2022/04/28 10:58:30;;;;;;;;;;;;;;;13.38;49.01;102949.50;5073180;28;20487;-58
2022/04/28 11:00:58;;;;;;;24.07;12.87;;;;;;;13.35;48.36;102940.88;5072698;28;19960;-58
2022/04/28 11:03:42;;;;;;;24.55;13.07;;;;;;;13.49;48.73;102944.88;5072704;28;20288;-58
2022/04/28 11:06:10;;;;;;;23.60;13.90;;;;;;;13.62;48.23;102945.41;5072466;28;20079;-58
2022/04/28 11:08:36;;;;;;;25.00;13.00;;;;;;;13.65;47.79;102940.13;5073049;28;20449;-58
2022/04/28 11:11:03;;;;;;;23.17;13.10;;;;;;;13.74;47.44;102943.22;5072611;28;20020;-59
2022/04/28 11:13:31;;;;;;;24.38;13.30;;;;;;;13.74;47.65;102946.00;5072507;28;20103;-59
2022/04/28 11:15:56;;;;;;;24.80;13.50;;;;;;;13.63;46.83;102950.72;5071715;28;20514;-59
2022/04/28 11:18:23;;;;;;;24.67;13.15;;;;;;;13.71;47.70;102935.41;5072576;28;20115;-59
2022/04/28 11:20:49;;;;;;;24.15;13.38;;;;;;;13.81;46.80;102929.88;5072564;28;20021;-59
2022/04/28 11:23:18;;;;;;;24.50;13.27;;;;;;;14.00;46.93;102932.94;5072728;28;20025;-59
2022/04/28 11:25:44;;;;;;;22.42;13.50;;;;;;;14.15;46.87;102936.81;5072599;28;20111;-59
2022/04/28 11:28:09;;;;;;;24.45;13.70;;;;;;;13.93;45.84;102934.34;5072345;28;20125;-59
2022/04/28 11:30:35;;;;;;;23.92;13.07;;;;;;;14.06;46.96;102932.94;5072480;28;20043;-58
2022/04/28 11:33:00;;;;;;;25.92;13.35;;;;;;;14.14;46.06;102933.22;5072359;28;20471;-58
2022/04/28 11:35:43;;;;;;;24.10;13.13;;;;;;;14.25;45.70;102928.47;5072482;28;20035;-58
2022/04/28 11:38:09;;;;;;;23.38;13.13;;;;;;;14.31;45.68;102934.88;5072677;28;20032;-57
2022/04/28 11:40:35;;;;;;;23.73;13.45;;;;;;;14.17;45.26;102932.63;5072387;28;20028;-59